Time;durP1;ratioP1;P1;durP2;ratioP2;P2;SDS_P1;SDS_P2;PMS_P1;PMS_P2;Temp;Humidity;BMP_temperature;BMP_pressure;BME280_temperature;BME280_humidity;BME280_pressure;Samples;Min_cycle;Max_cycle;Signal;HPM_P1;HPM_P2
2022/10/31 00:02:07;;;;;;;14.45;7.10;;;;;;;12.86;100.00;101303.13;5023345;28;20065;-82
2022/10/31 00:04:33;;;;;;;11.25;6.90;;;;;;;12.84;100.00;101307.53;5026637;28;20033;-82
2022/10/31 00:07:00;;;;;;;7.60;5.57;;;;;;;12.86;100.00;101307.53;5018908;28;20053;-82
2022/10/31 00:09:29;;;;;;;7.65;6.18;;;;;;;12.83;100.00;101303.16;5053197;28;20049;-84
2022/10/31 00:11:56;;;;;;;8.55;6.78;;;;;;;12.80;100.00;101303.19;5020209;28;20050;-82
2022/10/31 00:14:22;;;;;;;8.27;6.80;;;;;;;12.80;100.00;101299.69;5017986;28;20049;-85
2022/10/31 00:16:49;;;;;;;9.38;6.60;;;;;;;12.80;100.00;101305.81;5035698;28;20049;-83
2022/10/31 00:19:19;;;;;;;13.23;7.40;;;;;;;12.81;100.00;101306.69;5037666;28;20045;-84
2022/10/31 00:21:45;;;;;;;8.68;6.28;;;;;;;12.76;100.00;101311.97;5019460;28;20055;-83
2022/10/31 00:24:12;;;;;;;10.63;7.07;;;;;;;12.70;100.00;101306.78;5033499;28;20038;-85
2022/10/31 00:26:39;;;;;;;10.80;6.15;;;;;;;12.66;100.00;101319.06;5034483;28;20108;-85
2022/10/31 00:29:05;;;;;;;10.60;6.88;;;;;;;12.63;100.00;101310.31;5037455;28;20052;-83
2022/10/31 00:31:32;;;;;;;10.20;6.78;;;;;;;12.62;100.00;101319.97;5033924;28;20064;-83
2022/10/31 00:33:59;;;;;;;13.30;8.10;;;;;;;12.72;100.00;101320.75;5033622;28;20049;-82
2022/10/31 00:36:27;;;;;;;12.57;8.88;;;;;;;12.84;100.00;101323.31;5016855;28;20091;-82
2022/10/31 00:38:56;;;;;;;14.13;8.98;;;;;;;12.96;100.00;101321.44;5031408;28;20092;-82
2022/10/31 00:41:32;;;;;;;16.63;7.68;;;;;;;13.05;100.00;101324.88;5033115;28;20059;-84
2022/10/31 00:43:58;;;;;;;15.77;8.68;;;;;;;13.11;100.00;101321.31;5033854;28;20056;-85
2022/10/31 00:46:25;;;;;;;13.95;8.35;;;;;;;13.16;100.00;101331.81;5030984;28;20049;-84
2022/10/31 00:48:56;;;;;;;19.35;10.45;;;;;;;13.15;100.00;101335.31;5033991;28;20034;-86
2022/10/31 00:51:22;;;;;;;19.98;9.43;;;;;;;13.18;100.00;101337.91;5035515;28;20251;-81
2022/10/31 00:53:49;;;;;;;13.80;10.10;;;;;;;13.20;100.00;101341.41;5035130;28;20113;-83
2022/10/31 00:56:16;;;;;;;16.17;11.10;;;;;;;13.23;100.00;101344.88;5016846;28;20046;-83
2022/10/31 00:58:42;;;;;;;17.35;10.88;;;;;;;13.20;100.00;101344.91;4687607;28;10000006;-84
2022/10/31 01:01:11;;;;;;;17.05;10.63;;;;;;;13.19;100.00;101332.66;5023441;28;20103;-83
2022/10/31 01:03:39;;;;;;;17.23;10.52;;;;;;;13.20;100.00;101337.00;5036877;28;20041;-85
2022/10/31 01:06:09;;;;;;;22.02;12.75;;;;;;;13.22;100.00;101342.28;5038483;28;20057;-83
2022/10/31 01:08:37;;;;;;;30.00;14.93;;;;;;;13.31;100.00;101343.94;5041732;28;20049;-82
2022/10/31 01:11:22;;;;;;;28.50;14.50;;;;;;;13.42;100.00;101347.38;5051489;28;20536;-83
2022/10/31 01:13:53;;;;;;;22.17;12.70;;;;;;;13.46;100.00;101353.47;5022162;28;20042;-83
2022/10/31 01:16:23;;;;;;;21.83;12.73;;;;;;;13.54;100.00;101352.50;5033950;28;20042;-82
2022/10/31 01:18:51;;;;;;;25.65;14.63;;;;;;;13.53;100.00;101349.88;5039752;28;20346;-84
2022/10/31 01:21:22;;;;;;;32.55;16.05;;;;;;;13.61;100.00;101348.06;5018234;28;20093;-82
2022/10/31 01:23:48;;;;;;;29.48;17.17;;;;;;;13.72;100.00;101355.84;5035993;28;20060;-83
2022/10/31 01:26:22;;;;;;;24.48;15.50;;;;;;;13.69;100.00;101353.25;5040312;28;20041;-83
2022/10/31 01:28:56;;;;;;;;;;;;;;;13.69;100.00;101359.38;5041665;28;20053;-82
2022/10/31 01:31:27;;;;;;;28.15;16.00;;;;;;;13.72;100.00;101351.44;5038553;28;19969;-83
2022/10/31 01:33:55;;;;;;;27.23;16.40;;;;;;;13.67;100.00;101350.59;5023765;28;20061;-84
2022/10/31 01:36:31;;;;;;;23.98;16.38;;;;;;;13.63;100.00;101359.44;5007537;28;20046;-83
2022/10/31 01:39:01;;;;;;;35.95;18.88;;;;;;;13.63;100.00;101359.44;5054363;28;20057;-84
2022/10/31 01:41:33;;;;;;;33.75;17.55;;;;;;;13.59;100.00;101354.22;5044394;28;20042;-82
2022/10/31 01:44:16;;;;;;;30.35;17.92;;;;;;;13.54;100.00;101368.28;5036059;28;20544;-83
2022/10/31 01:46:55;;;;;;;31.55;18.45;;;;;;;13.52;100.00;101363.94;5038794;28;20072;-82
2022/10/31 01:49:32;;;;;;;34.58;20.05;;;;;;;13.48;100.00;101356.94;5037254;28;20067;-83
2022/10/31 01:52:08;;;;;;;38.67;22.60;;;;;;;13.51;100.00;101368.31;5035664;28;20103;-83
2022/10/31 01:54:41;;;;;;;36.55;21.30;;;;;;;13.52;100.00;101371.84;5036785;28;20060;-83
2022/10/31 01:57:11;;;;;;;38.47;19.90;;;;;;;13.47;100.00;101369.25;5034376;28;20046;-82
2022/10/31 01:59:48;;;;;;;38.30;20.63;;;;;;;13.47;100.00;101371.88;5036915;28;20050;-85
2022/10/31 02:02:18;;;;;;;36.95;21.50;;;;;;;13.48;100.00;101367.47;5032682;28;20046;-82
2022/10/31 02:04:47;;;;;;;37.22;20.58;;;;;;;13.40;100.00;101370.16;5015512;28;20056;-82
2022/10/31 02:07:20;;;;;;;37.65;20.70;;;;;;;13.34;100.00;101373.69;5035307;28;20080;-83
2022/10/31 02:09:48;;;;;;;;;;;;;;;13.39;100.00;101371.09;5054423;28;20049;-83
2022/10/31 02:12:17;;;;;;;38.90;20.83;;;;;;;13.33;100.00;101371.94;5019769;28;19913;-83
2022/10/31 02:14:44;;;;;;;41.65;21.15;;;;;;;13.30;100.00;101376.38;5040232;28;20026;-84
2022/10/31 02:17:14;;;;;;;31.77;20.77;;;;;;;13.25;100.00;101371.16;5037246;28;20105;-83
2022/10/31 02:20:13;;;;;;;40.55;21.38;;;;;;;13.18;100.00;101372.06;5038329;28;20053;-83
2022/10/31 02:23:11;;;;;;;33.22;22.55;;;;;;;13.13;100.00;101374.75;5039252;28;20025;-82
2022/10/31 02:26:38;;;;;;;30.13;20.27;;;;;;;13.08;100.00;101374.78;5036143;28;20500;-82
2022/10/31 02:29:36;;;;;;;49.40;21.85;;;;;;;13.02;100.00;101372.22;5035660;28;20042;-83
2022/10/31 02:32:21;;;;;;;41.03;22.42;;;;;;;12.99;100.00;101377.50;5040918;28;20056;-82
2022/10/31 02:35:05;;;;;;;43.95;21.77;;;;;;;12.92;100.00;101373.19;5043291;28;20060;-83
2022/10/31 02:37:44;;;;;;;35.70;20.77;;;;;;;12.90;100.00;101367.03;5038906;28;20058;-83
2022/10/31 02:40:54;;;;;;;35.78;21.77;;;;;;;12.84;100.00;101373.22;5028416;28;20045;-83
2022/10/31 02:43:31;;;;;;;37.78;20.90;;;;;;;12.79;100.00;101376.75;5022326;28;20052;-83
2022/10/31 02:46:09;;;;;;;35.13;20.23;;;;;;;12.75;100.00;101373.28;5038568;28;20053;-83
2022/10/31 02:48:40;;;;;;;43.90;23.20;;;;;;;12.73;100.00;101377.66;5038359;28;20111;-83
2022/10/31 02:51:07;;;;;;;33.05;20.77;;;;;;;12.67;100.00;101375.97;5036000;28;20029;-83
2022/10/31 02:53:36;;;;;;;50.35;23.00;;;;;;;12.65;100.00;101375.09;5040851;28;20125;-83
2022/10/31 02:56:19;;;;;;;41.25;22.85;;;;;;;12.61;100.00;101376.00;5037839;28;20049;-83
2022/10/31 02:58:55;;;;;;;37.42;22.55;;;;;;;12.56;100.00;101377.78;5035852;28;20060;-86
2022/10/31 03:01:44;;;;;;;37.17;21.38;;;;;;;12.53;100.00;101378.66;5053856;28;20042;-84
2022/10/31 03:04:45;;;;;;;34.15;21.20;;;;;;;12.45;100.00;101376.94;5037545;28;20073;-84
2022/10/31 03:07:41;;;;;;;32.20;20.33;;;;;;;12.41;100.00;101376.97;5029322;28;20137;-83
2022/10/31 03:10:21;;;;;;;39.75;21.15;;;;;;;12.40;100.00;101379.63;5036145;28;20128;-82
2022/10/31 03:12:59;;;;;;;36.47;20.98;;;;;;;12.35;100.00;101376.13;5038389;28;20053;-84
2022/10/31 03:15:38;;;;;;;33.63;20.45;;;;;;;12.30;100.00;101385.78;5021544;28;20042;-83
2022/10/31 03:18:16;;;;;;;38.83;21.35;;;;;;;12.31;100.00;101388.41;5057431;28;20072;-82
2022/10/31 03:21:01;;;;;;;37.92;19.88;;;;;;;12.22;100.00;101384.06;5040928;28;20032;-82
2022/10/31 03:23:31;;;;;;;35.15;19.08;;;;;;;12.15;100.00;101391.94;5041642;28;20138;-83
2022/10/31 03:26:02;;;;;;;31.73;18.60;;;;;;;12.11;100.00;101396.38;5040140;28;20104;-83
2022/10/31 03:28:41;;;;;;;39.08;20.23;;;;;;;12.08;100.00;101398.97;5042042;28;20104;-83
2022/10/31 03:31:10;;;;;;;39.47;20.52;;;;;;;12.06;100.00;101401.63;5021768;28;20057;-83
2022/10/31 03:33:39;;;;;;;32.58;20.95;;;;;;;12.07;100.00;101402.47;5039249;28;20516;-83
2022/10/31 03:36:12;;;;;;;35.08;21.08;;;;;;;12.03;100.00;101398.13;5019801;28;20060;-82
2022/10/31 03:38:40;;;;;;;36.60;20.08;;;;;;;12.02;100.00;101407.75;5039122;28;20038;-83
2022/10/31 03:41:15;;;;;;;30.40;18.90;;;;;;;11.95;100.00;101400.75;5037803;28;20056;-82
2022/10/31 03:43:55;;;;;;;36.92;22.02;;;;;;;11.93;100.00;101407.75;5037450;28;20111;-84
2022/10/31 03:46:25;;;;;;;39.10;20.42;;;;;;;11.89;100.00;101403.38;5037575;28;20410;-84
2022/10/31 03:48:52;;;;;;;33.15;20.42;;;;;;;11.84;100.00;101413.88;5039122;28;20064;-83
2022/10/31 03:51:30;;;;;;;41.03;20.55;;;;;;;11.84;100.00;101413.03;5054871;28;20042;-85
2022/10/31 03:54:15;;;;;;;39.10;23.00;;;;;;;11.81;100.00;101413.91;5056302;28;20038;-82
2022/10/31 03:56:49;;;;;;;35.90;20.05;;;;;;;11.77;100.00;101417.38;5036396;28;20112;-83
2022/10/31 03:59:23;;;;;;;32.03;19.02;;;;;;;11.72;100.00;101417.41;5044946;28;20048;-83
2022/10/31 04:01:56;;;;;;;37.70;21.70;;;;;;;11.71;100.00;101425.28;5024718;28;20064;-82
2022/10/31 04:04:23;;;;;;;29.38;18.10;;;;;;;11.68;100.00;101428.78;5023324;28;20065;-82
2022/10/31 04:06:51;;;;;;;32.30;19.13;;;;;;;11.65;100.00;101427.91;5034712;28;20456;-85
2022/10/31 04:09:20;;;;;;;42.95;21.52;;;;;;;11.64;100.00;101439.25;5055874;28;20033;-82
2022/10/31 04:11:52;;;;;;;35.80;19.38;;;;;;;11.61;100.00;101434.88;5038309;28;20115;-84
2022/10/31 04:14:19;;;;;;;39.95;23.70;;;;;;;11.59;100.00;101437.53;5025786;28;20052;-83
2022/10/31 04:16:47;;;;;;;36.30;21.13;;;;;;;11.61;100.00;101436.66;5024587;28;20040;-83
2022/10/31 04:19:14;;;;;;;39.55;22.55;;;;;;;11.59;100.00;101437.53;5039962;28;20037;-82
2022/10/31 04:21:43;;;;;;;38.47;21.50;;;;;;;11.59;100.00;101440.13;5042309;28;20113;-83
2022/10/31 04:24:10;;;;;;;39.80;20.23;;;;;;;11.55;100.00;101445.38;5057692;28;20041;-85
2022/10/31 04:26:37;;;;;;;37.85;21.65;;;;;;;11.50;100.00;101437.53;5040494;28;20046;-83
2022/10/31 04:29:04;;;;;;;46.70;20.48;;;;;;;11.50;100.00;101450.63;5039522;28;20061;-84
2022/10/31 04:31:31;;;;;;;41.50;22.52;;;;;;;11.47;100.00;101452.38;5026232;28;20045;-82
2022/10/31 04:33:58;;;;;;;42.50;22.73;;;;;;;11.44;100.00;101455.88;5025206;28;20072;-83
2022/10/31 04:36:24;;;;;;;36.92;20.40;;;;;;;11.42;100.00;101444.53;5022230;28;20029;-84
2022/10/31 04:38:51;;;;;;;36.22;19.65;;;;;;;11.43;100.00;101443.63;5023455;28;20041;-83
2022/10/31 04:41:17;;;;;;;36.80;21.80;;;;;;;11.40;100.00;101443.63;5040593;28;20113;-83
2022/10/31 04:43:44;;;;;;;39.45;20.83;;;;;;;11.42;100.00;101439.28;5039553;28;20037;-82
2022/10/31 04:46:13;;;;;;;38.90;20.77;;;;;;;11.36;100.00;101448.00;5036428;28;20126;-82
2022/10/31 04:48:40;;;;;;;47.08;23.95;;;;;;;11.36;100.00;101441.91;5022816;28;20113;-81
2022/10/31 04:51:06;;;;;;;34.42;20.02;;;;;;;11.34;100.00;101436.66;5034719;28;20045;-83
2022/10/31 04:53:35;;;;;;;37.03;22.30;;;;;;;11.31;100.00;101439.25;5035491;28;20046;-82
2022/10/31 04:56:02;;;;;;;40.80;22.20;;;;;;;11.29;100.00;101442.75;5037407;28;20083;-82
2022/10/31 04:58:29;;;;;;;31.75;20.23;;;;;;;11.28;100.00;101439.28;5036358;28;20045;-84
2022/10/31 05:00:56;;;;;;;46.80;22.50;;;;;;;11.30;100.00;101447.13;5037866;28;20104;-83
2022/10/31 05:03:23;;;;;;;34.65;21.02;;;;;;;11.30;100.00;101440.13;5021064;28;20069;-82
2022/10/31 05:05:50;;;;;;;33.05;20.33;;;;;;;11.30;100.00;101439.25;5020985;28;20057;-84
2022/10/31 05:08:16;;;;;;;43.40;22.75;;;;;;;11.30;100.00;101441.88;5036989;28;20227;-83
2022/10/31 05:10:43;;;;;;;43.20;22.20;;;;;;;11.29;100.00;101432.25;5037896;28;20041;-84
2022/10/31 05:13:10;;;;;;;35.65;21.00;;;;;;;11.25;100.00;101437.53;5034784;28;20052;-83
2022/10/31 05:15:37;;;;;;;32.42;17.65;;;;;;;11.24;100.00;101430.53;5037717;28;20472;-83
2022/10/31 05:18:04;;;;;;;40.25;19.73;;;;;;;11.22;100.00;101426.16;5018065;28;20034;-84
2022/10/31 05:20:31;;;;;;;47.30;21.67;;;;;;;11.23;100.00;101428.75;5037839;28;20049;-81
2022/10/31 05:23:00;;;;;;;40.30;21.95;;;;;;;11.20;100.00;101427.91;5036343;28;20053;-83
2022/10/31 05:25:29;;;;;;;29.75;16.98;;;;;;;11.17;100.00;101431.41;5039137;28;20041;-82
2022/10/31 05:27:57;;;;;;;34.58;20.10;;;;;;;11.14;100.00;101431.38;5020111;28;20050;-82
2022/10/31 05:30:28;;;;;;;40.15;20.85;;;;;;;11.14;100.00;101427.91;5036498;28;20136;-84
2022/10/31 05:32:55;;;;;;;36.45;20.73;;;;;;;11.17;100.00;101433.13;5036205;28;20625;-82
2022/10/31 05:35:28;;;;;;;42.50;23.70;;;;;;;11.17;100.00;101436.66;5017804;28;20041;-83
2022/10/31 05:37:55;;;;;;;33.80;19.45;;;;;;;11.22;100.00;101434.00;5030948;28;20053;-83
2022/10/31 05:40:22;;;;;;;28.90;18.05;;;;;;;11.21;100.00;101427.91;5021247;28;20046;-83
2022/10/31 05:42:53;;;;;;;34.72;19.60;;;;;;;11.24;100.00;101430.53;5055212;28;20045;-83
2022/10/31 05:45:21;;;;;;;39.45;20.67;;;;;;;11.23;100.00;101441.88;5040180;28;20045;-83
2022/10/31 05:48:01;;;;;;;39.83;20.80;;;;;;;11.17;100.00;101443.63;5039964;28;20041;-83
2022/10/31 05:50:32;;;;;;;29.10;18.77;;;;;;;11.13;100.00;101440.09;5024193;28;20136;-84
2022/10/31 05:53:04;;;;;;;34.42;20.08;;;;;;;11.11;100.00;101447.13;5037716;28;20065;-83
2022/10/31 05:55:32;;;;;;;38.15;19.85;;;;;;;11.08;100.00;101447.97;5015568;28;20041;-83
2022/10/31 05:57:59;;;;;;;42.95;21.65;;;;;;;11.04;100.00;101446.22;5038976;28;20046;-82
2022/10/31 06:00:27;;;;;;;40.25;22.58;;;;;;;11.03;100.00;101448.81;5038857;28;20038;-82
2022/10/31 06:03:02;;;;;;;48.65;24.38;;;;;;;11.05;100.00;101447.09;5038058;28;20037;-82
2022/10/31 06:05:30;;;;;;;40.40;22.02;;;;;;;11.04;100.00;101441.00;5024807;28;20084;-84
2022/10/31 06:07:57;;;;;;;40.67;21.63;;;;;;;11.01;100.00;101447.97;5039447;28;20137;-82
2022/10/31 06:10:25;;;;;;;39.08;20.58;;;;;;;10.98;100.00;101443.59;5022626;28;20053;-83
2022/10/31 06:12:51;;;;;;;37.63;21.13;;;;;;;10.96;100.00;101444.47;5037620;28;20038;-82
2022/10/31 06:15:18;;;;;;;40.55;21.73;;;;;;;10.92;100.00;101439.22;5020276;28;20046;-83
2022/10/31 06:17:45;;;;;;;35.15;18.38;;;;;;;10.92;100.00;101441.84;5019919;28;20483;-84
2022/10/31 06:20:12;;;;;;;47.25;22.98;;;;;;;10.96;100.00;101447.06;5019775;28;20144;-84
2022/10/31 06:22:39;;;;;;;41.63;21.13;;;;;;;10.96;100.00;101447.06;5035954;28;20061;-83
2022/10/31 06:25:05;;;;;;;32.95;20.13;;;;;;;10.94;100.00;101439.22;5036257;28;20054;-82
2022/10/31 06:27:32;;;;;;;35.75;20.83;;;;;;;10.95;100.00;101442.69;5022990;28;20046;-83
2022/10/31 06:29:59;;;;;;;41.17;18.75;;;;;;;10.93;100.00;101447.94;5024690;28;20045;-83
2022/10/31 06:32:26;;;;;;;27.10;17.25;;;;;;;10.92;100.00;101438.31;5039964;28;20080;-83
2022/10/31 06:34:52;;;;;;;28.67;17.60;;;;;;;10.90;100.00;101445.34;5039804;28;20046;-82
2022/10/31 06:37:19;;;;;;;35.88;20.33;;;;;;;10.91;100.00;101457.53;5023388;28;20041;-82
2022/10/31 06:39:46;;;;;;;36.15;19.35;;;;;;;10.93;100.00;101450.56;5040729;28;20164;-82
2022/10/31 06:42:12;;;;;;;27.58;17.60;;;;;;;10.99;100.00;101454.94;5023900;28;20132;-83
2022/10/31 06:44:39;;;;;;;37.85;19.30;;;;;;;11.00;100.00;101449.72;5045537;28;20280;-84
2022/10/31 06:47:06;;;;;;;36.80;19.15;;;;;;;11.02;100.00;101457.56;5040226;28;20053;-82
2022/10/31 06:49:33;;;;;;;38.28;19.65;;;;;;;11.04;100.00;101469.81;5042139;28;20082;-84
2022/10/31 06:52:00;;;;;;;42.10;21.05;;;;;;;11.03;100.00;101467.16;5029925;28;20045;-83
2022/10/31 06:54:27;;;;;;;35.47;19.42;;;;;;;11.04;100.00;101472.44;5042661;28;20045;-85
2022/10/31 06:56:53;;;;;;;39.47;18.52;;;;;;;11.08;100.00;101479.41;5041395;28;20037;-83
2022/10/31 06:59:20;;;;;;;36.13;18.77;;;;;;;11.11;100.00;101470.69;5030005;28;20025;-83
2022/10/31 07:01:47;;;;;;;36.00;18.70;;;;;;;11.13;100.00;101479.41;5040894;28;20072;-84
2022/10/31 07:04:14;;;;;;;26.58;17.27;;;;;;;11.16;100.00;101489.03;5025269;28;20129;-84
2022/10/31 07:06:40;;;;;;;34.67;18.40;;;;;;;11.18;100.00;101484.69;5038181;28;20255;-81
2022/10/31 07:09:07;;;;;;;29.40;17.85;;;;;;;11.22;100.00;101489.06;5039502;28;20056;-83
2022/10/31 07:11:37;;;;;;;29.58;18.48;;;;;;;11.25;100.00;101487.31;5041218;28;20037;-82
2022/10/31 07:14:04;;;;;;;33.47;18.08;;;;;;;11.27;100.00;101486.44;5019367;28;20112;-82
2022/10/31 07:16:30;;;;;;;33.08;16.85;;;;;;;11.31;100.00;101496.06;5024923;28;20049;-85
2022/10/31 07:18:58;;;;;;;32.25;18.13;;;;;;;11.34;100.00;101496.94;5041258;28;20055;-84
2022/10/31 07:21:25;;;;;;;26.88;15.32;;;;;;;11.35;100.00;101501.28;5041184;28;20126;-83
2022/10/31 07:23:51;;;;;;;32.95;17.20;;;;;;;11.36;100.00;101499.56;5029096;28;20045;-85
2022/10/31 07:26:18;;;;;;;28.48;17.05;;;;;;;11.36;100.00;101492.56;5020294;28;20051;-83
2022/10/31 07:28:47;;;;;;;28.63;16.75;;;;;;;11.38;100.00;101509.19;5042534;28;20041;-84
2022/10/31 07:31:15;;;;;;;27.75;17.55;;;;;;;11.38;100.00;101503.94;5043524;28;20073;-83
2022/10/31 07:33:43;;;;;;;28.23;15.77;;;;;;;11.41;100.00;101497.81;5029362;28;20045;-84
2022/10/31 07:36:09;;;;;;;33.00;17.40;;;;;;;11.44;100.00;101496.94;5025987;28;20042;-84
2022/10/31 07:38:38;;;;;;;30.27;16.13;;;;;;;11.44;100.00;101503.06;5028083;28;20379;-83
2022/10/31 07:41:05;;;;;;;34.80;17.00;;;;;;;11.47;100.00;101502.19;5059862;28;20072;-84
2022/10/31 07:43:31;;;;;;;32.45;16.45;;;;;;;11.51;100.00;101503.94;5045908;28;20298;-83
2022/10/31 07:45:58;;;;;;;25.15;17.13;;;;;;;11.58;100.00;101505.72;5052214;28;20114;-84
2022/10/31 07:48:24;;;;;;;31.55;18.35;;;;;;;11.63;100.00;101513.56;5044137;28;20386;-83
2022/10/31 07:50:51;;;;;;;27.13;17.95;;;;;;;11.68;100.00;101510.09;5045294;28;20080;-84
2022/10/31 07:53:18;;;;;;;26.90;16.00;;;;;;;11.73;100.00;101505.72;5031786;28;20039;-83
2022/10/31 07:55:45;;;;;;;27.25;14.43;;;;;;;11.80;100.00;101497.81;5027141;28;20041;-84
2022/10/31 07:58:15;;;;;;;27.33;15.80;;;;;;;11.87;100.00;101502.19;5029356;28;20045;-82
2022/10/31 08:00:44;;;;;;;32.67;18.02;;;;;;;11.94;100.00;101506.56;5044026;28;20045;-83
2022/10/31 08:03:15;;;;;;;28.85;16.17;;;;;;;12.01;100.00;101499.59;5059149;28;20048;-84
2022/10/31 08:05:44;;;;;;;32.33;16.88;;;;;;;12.06;100.00;101506.59;5043021;28;20132;-84
2022/10/31 08:08:11;;;;;;;26.08;16.35;;;;;;;12.11;100.00;101501.34;5026111;28;20045;-84
2022/10/31 08:10:38;;;;;;;22.13;14.57;;;;;;;12.14;100.00;101493.44;5041569;28;20045;-84
2022/10/31 08:13:11;;;;;;;29.45;17.10;;;;;;;12.20;100.00;101496.06;5028884;28;20069;-84
2022/10/31 08:15:49;;;;;;;34.83;16.48;;;;;;;12.29;100.00;101496.91;5046161;28;20029;-83
2022/10/31 08:18:21;;;;;;;25.65;14.50;;;;;;;12.36;100.00;101496.03;5046431;28;20049;-84
2022/10/31 08:20:50;;;;;;;28.42;16.60;;;;;;;12.44;100.00;101496.00;5027661;28;20046;-85
2022/10/31 08:23:16;;;;;;;25.30;15.02;;;;;;;12.50;100.00;101495.97;5027740;28;20065;-83
2022/10/31 08:25:43;;;;;;;26.67;15.88;;;;;;;12.54;100.00;101502.97;5043287;28;20052;-83
2022/10/31 08:28:12;;;;;;;24.55;15.35;;;;;;;12.56;100.00;101501.22;5022375;28;20056;-85
2022/10/31 08:30:42;;;;;;;31.52;20.17;;;;;;;12.65;100.00;101500.31;5027400;28;20076;-85
2022/10/31 08:33:18;;;;;;;26.35;15.32;;;;;;;12.73;100.00;101495.88;5043345;28;20046;-82
2022/10/31 08:35:45;;;;;;;24.83;16.50;;;;;;;12.84;100.00;101486.22;5026444;28;20050;-83
2022/10/31 08:38:16;;;;;;;30.63;18.15;;;;;;;12.93;100.00;101482.66;5041883;28;20050;-84
2022/10/31 08:40:43;;;;;;;22.48;14.32;;;;;;;13.06;100.00;101486.97;5043594;28;20049;-83
2022/10/31 08:43:19;;;;;;;28.85;15.88;;;;;;;13.18;100.00;101482.50;5042903;28;20053;-83
2022/10/31 08:45:50;;;;;;;25.10;15.82;;;;;;;13.26;100.00;101480.72;5042011;28;20052;-84
2022/10/31 08:48:35;;;;;;;29.05;17.83;;;;;;;13.34;100.00;101470.13;5038817;28;20034;-84
2022/10/31 08:51:02;;;;;;;23.80;15.45;;;;;;;13.43;100.00;101472.72;5031887;28;20053;-84
2022/10/31 08:53:32;;;;;;;24.55;15.02;;;;;;;13.53;100.00;101469.16;5023969;28;20060;-83
2022/10/31 08:56:09;;;;;;;20.70;14.05;;;;;;;13.61;100.00;101461.19;5025608;28;20057;-83
2022/10/31 08:58:35;;;;;;;25.80;15.48;;;;;;;13.71;100.00;101467.22;5025935;28;20041;-84
2022/10/31 09:01:03;;;;;;;36.72;14.50;;;;;;;13.82;100.00;101465.38;5023476;28;20065;-82
2022/10/31 09:03:31;;;;;;;23.48;14.63;;;;;;;13.93;100.00;101454.75;5023857;28;20383;-83
2022/10/31 09:06:08;;;;;;;24.23;13.02;;;;;;;14.04;100.00;101454.63;5041351;28;20082;-82
2022/10/31 09:08:37;;;;;;;26.30;14.48;;;;;;;14.14;100.00;101458.91;5020081;28;20057;-84
2022/10/31 09:11:06;;;;;;;20.48;12.75;;;;;;;14.29;100.00;101459.63;5037348;28;20091;-83
2022/10/31 09:13:33;;;;;;;22.13;14.35;;;;;;;14.42;100.00;101461.25;5035572;28;20143;-83
2022/10/31 09:15:59;;;;;;;24.15;15.73;;;;;;;14.54;100.00;101463.72;5016470;28;20038;-83
2022/10/31 09:18:28;;;;;;;24.75;14.32;;;;;;;14.70;100.00;101460.91;5021613;28;20034;-83
2022/10/31 09:20:55;;;;;;;18.38;12.15;;;;;;;14.84;100.00;101466.00;5046246;28;20064;-82
2022/10/31 09:23:24;;;;;;;19.17;12.70;;;;;;;15.02;100.00;101472.78;5047184;28;20041;-82
2022/10/31 09:25:53;;;;;;;24.73;14.40;;;;;;;15.17;100.00;101459.34;5046303;28;20049;-83
2022/10/31 09:28:23;;;;;;;25.08;13.77;;;;;;;15.35;100.00;101468.75;5030393;28;20050;-83
2022/10/31 09:30:53;;;;;;;26.60;14.40;;;;;;;15.46;100.00;101470.34;5037537;28;20029;-83
2022/10/31 09:33:25;;;;;;;21.20;14.57;;;;;;;15.59;100.00;101473.66;5026227;28;20290;-84
2022/10/31 09:35:52;;;;;;;28.88;13.82;;;;;;;15.78;100.00;101471.59;5025558;28;20049;-85
2022/10/31 09:38:22;;;;;;;19.77;13.77;;;;;;;15.89;99.50;101469.66;5020663;28;20042;-85
2022/10/31 09:41:12;;;;;;;22.50;13.48;;;;;;;15.92;98.74;101464.31;5037264;28;20056;-84
2022/10/31 09:43:58;;;;;;;20.60;13.68;;;;;;;16.00;97.31;101464.19;4990260;28;20055;-85
2022/10/31 09:46:48;;;;;;;20.02;12.60;;;;;;;15.89;96.01;101461.72;5036160;28;20058;-87
2022/10/31 09:49:35;;;;;;;25.90;14.07;;;;;;;15.89;96.07;101459.09;5008355;28;20285;-86
2022/10/31 09:52:22;;;;;;;25.33;12.45;;;;;;;15.93;95.78;101465.19;5037278;28;20049;-87
2022/10/31 09:55:24;;;;;;;22.40;13.95;;;;;;;15.91;95.05;101461.72;5033566;28;20053;-85
2022/10/31 09:57:51;;;;;;;26.25;13.25;;;;;;;15.95;95.58;101455.47;5035228;28;20033;-86
2022/10/31 10:00:22;;;;;;;24.85;14.63;;;;;;;15.92;94.86;101458.16;5033732;28;20061;-82
2022/10/31 10:03:07;;;;;;;24.92;14.07;;;;;;;15.90;95.72;101459.97;5030849;28;20045;-82
2022/10/31 10:06:07;;;;;;;25.90;12.88;;;;;;;15.84;94.58;101460.97;5014441;28;20069;-82
2022/10/31 10:08:36;;;;;;;17.95;10.88;;;;;;;15.89;96.14;101453.81;5017916;28;20042;-85
2022/10/31 10:11:14;;;;;;;21.48;12.85;;;;;;;15.94;96.07;101443.16;5031749;28;20117;-84
2022/10/31 10:14:28;;;;;;;24.98;13.73;;;;;;;15.92;94.84;101451.13;5045266;28;20038;-82
2022/10/31 10:17:11;;;;;;;20.15;11.85;;;;;;;15.97;95.47;101444.00;5033144;28;20135;-82
2022/10/31 10:19:59;;;;;;;23.42;12.23;;;;;;;16.01;94.36;101444.81;5017775;28;20182;-84
2022/10/31 10:23:12;;;;;;;19.10;12.07;;;;;;;16.07;92.79;101446.44;5030855;28;20390;-83
2022/10/31 10:25:41;;;;;;;25.63;14.07;;;;;;;16.10;92.90;101443.75;4993819;28;20156;-83
2022/10/31 10:28:23;;;;;;;22.40;12.88;;;;;;;16.14;92.92;101442.78;5032929;28;20144;-83
2022/10/31 10:31:01;;;;;;;27.52;13.02;;;;;;;16.14;91.66;101437.50;5015441;28;20091;-82
2022/10/31 10:33:58;;;;;;;20.98;11.55;;;;;;;16.17;92.18;101438.31;5031788;28;20057;-83
2022/10/31 10:36:47;;;;;;;23.20;11.25;;;;;;;16.31;92.06;101434.50;5035990;28;20226;-84
2022/10/31 10:39:28;;;;;;;21.23;12.45;;;;;;;16.45;90.03;101432.50;5031752;28;20037;-83
2022/10/31 10:47:42;;;;;;;23.75;11.82;;;;;;;16.72;88.38;101424.00;5019152;28;20037;-85
2022/10/31 10:50:20;;;;;;;18.77;10.90;;;;;;;16.79;87.38;101422.94;5017951;28;20053;-86
2022/10/31 10:53:20;;;;;;;21.60;10.95;;;;;;;16.81;86.69;101434.34;5018489;28;20053;-86
2022/10/31 10:56:05;;;;;;;21.70;11.38;;;;;;;16.78;87.50;101429.13;5029313;28;20139;-86
2022/10/31 10:58:31;;;;;;;16.73;10.23;;;;;;;16.86;87.43;101424.53;5032890;28;20050;-87
2022/10/31 11:00:59;;;;;;;17.80;11.43;;;;;;;16.99;87.29;101415.44;5016418;28;20054;-86
2022/10/31 11:03:26;;;;;;;19.70;10.75;;;;;;;17.17;86.85;101416.78;5031779;28;20049;-86
2022/10/31 11:06:00;;;;;;;23.83;13.35;;;;;;;17.29;84.82;101414.75;5030512;28;20065;-84
2022/10/31 11:08:32;;;;;;;16.48;11.02;;;;;;;17.18;85.47;101410.59;5017793;28;20042;-85
2022/10/31 11:11:20;;;;;;;18.17;10.68;;;;;;;17.29;85.03;101412.97;5014848;28;20060;-84
2022/10/31 11:13:50;;;;;;;16.95;11.63;;;;;;;17.40;84.60;101407.38;5043072;28;20148;-85
2022/10/31 11:16:41;;;;;;;20.65;11.50;;;;;;;17.46;83.69;101401.09;5014128;28;20033;-85
2022/10/31 11:19:27;;;;;;;16.67;10.52;;;;;;;17.49;83.89;101404.50;5029582;28;20405;-86
2022/10/31 11:21:54;;;;;;;15.50;9.88;;;;;;;17.51;84.03;101402.69;5013774;28;20053;-84
2022/10/31 11:24:26;;;;;;;15.63;9.27;;;;;;;17.56;83.30;101405.25;5015926;28;20072;-86
2022/10/31 11:26:53;;;;;;;17.20;9.35;;;;;;;17.75;82.55;101397.66;5027571;28;20715;-86
2022/10/31 11:29:26;;;;;;;12.77;8.07;;;;;;;17.81;81.15;101386.91;5032354;28;20047;-86
2022/10/31 11:31:56;;;;;;;16.37;9.47;;;;;;;17.80;79.89;101387.81;5032145;28;20049;-86
2022/10/31 11:34:38;;;;;;;15.80;8.10;;;;;;;17.84;79.92;101383.31;5030220;28;20055;-86